Time;durP1;ratioP1;P1;durP2;ratioP2;P2;SDS_P1;SDS_P2;PMS_P1;PMS_P2;Temp;Humidity;BMP_temperature;BMP_pressure;BME280_temperature;BME280_humidity;BME280_pressure;Samples;Min_cycle;Max_cycle;Signal;HPM_P1;HPM_P2
2021/06/05 00:00:10;;;;;;;35.53;32.13;;;21.00;99.90;;;;;;4973436;28;20489;-70
2021/06/05 00:02:37;;;;;;;36.17;32.87;;;21.00;99.90;;;;;;4969879;28;20448;-69
2021/06/05 00:05:06;;;;;;;41.67;37.97;;;21.10;99.90;;;;;;4973613;28;20480;-69
2021/06/05 00:07:34;;;;;;;38.70;35.20;;;21.00;99.90;;;;;;4973886;28;20476;-69
2021/06/05 00:10:01;;;;;;;35.07;31.80;;;21.00;99.90;;;;;;4973665;28;20447;-69
2021/06/05 00:12:29;;;;;;;38.70;35.37;;;21.00;99.90;;;;;;4975821;28;20480;-70
2021/06/05 00:14:56;;;;;;;35.97;32.80;;;21.00;99.90;;;;;;4975601;28;20457;-70
2021/06/05 00:17:24;;;;;;;34.10;30.93;;;21.00;99.90;;;;;;4977807;28;20474;-69
2021/06/05 00:19:51;;;;;;;36.27;33.07;;;21.00;99.90;;;;;;4975298;28;20935;-68
2021/06/05 00:22:18;;;;;;;35.07;32.07;;;21.00;99.90;;;;;;4974784;28;20452;-68
2021/06/05 00:24:46;;;;;;;34.47;31.30;;;21.00;99.90;;;;;;4976066;28;20452;-68
2021/06/05 00:27:13;;;;;;;34.73;31.77;;;20.90;99.90;;;;;;4974461;28;20476;-70
2021/06/05 00:29:39;;;;;;;35.70;32.60;;;21.00;99.90;;;;;;4973981;28;20816;-71
2021/06/05 00:32:07;;;;;;;39.17;35.50;;;21.00;99.90;;;;;;4975784;28;20619;-70
2021/06/05 00:34:33;;;;;;;36.27;32.93;;;21.00;99.90;;;;;;4974733;28;20460;-70
2021/06/05 00:37:01;;;;;;;41.10;36.83;;;20.90;99.90;;;;;;4975156;28;20546;-70
2021/06/05 00:39:28;;;;;;;37.17;33.90;;;20.90;99.90;;;;;;4974934;28;20903;-69
2021/06/05 00:41:57;;;;;;;36.10;32.80;;;20.90;99.90;;;;;;4974764;28;20453;-67
2021/06/05 00:44:24;;;;;;;35.63;32.50;;;20.90;99.90;;;;;;4983234;28;20462;-70
2021/06/05 00:46:50;;;;;;;43.60;39.50;;;20.90;99.90;;;;;;4974881;28;20467;-70
2021/06/05 00:49:17;;;;;;;38.07;34.50;;;20.80;99.90;;;;;;4974412;28;20447;-70
2021/06/05 00:51:46;;;;;;;43.03;39.10;;;20.80;99.90;;;;;;4972356;28;20508;-72
2021/06/05 00:54:15;;;;;;;44.40;40.50;;;20.80;99.90;;;;;;4974786;28;20471;-69
2021/06/05 00:56:43;;;;;;;51.77;47.03;;;20.70;99.90;;;;;;4973867;28;20601;-70
2021/06/05 00:59:11;;;;;;;44.63;40.33;;;20.80;99.90;;;;;;4974476;28;20441;-70
2021/06/05 01:01:40;;;;;;;49.10;44.27;;;20.70;99.90;;;;;;4973700;28;20447;-67
2021/06/05 01:04:06;;;;;;;41.27;37.43;;;20.80;99.90;;;;;;4971768;28;20440;-68
2021/06/05 01:06:38;;;;;;;47.67;43.33;;;20.70;99.90;;;;;;4972397;28;21028;-69
2021/06/05 01:09:14;;;;;;;41.87;37.87;;;20.70;99.90;;;;;;4973991;28;20803;-69
2021/06/05 01:11:47;;;;;;;44.67;40.70;;;20.60;99.90;;;;;;4974286;28;20469;-68
2021/06/05 01:14:21;;;;;;;52.30;47.60;;;20.60;99.90;;;;;;4974295;28;20904;-69
2021/06/05 01:16:52;;;;;;;44.80;40.80;;;20.50;99.90;;;;;;4974311;28;20980;-69
2021/06/05 01:19:39;;;;;;;48.33;43.73;;;20.40;99.90;;;;;;4970813;28;20448;-68
2021/06/05 01:22:16;;;;;;;41.03;37.33;;;20.40;99.90;;;;;;4974162;28;20456;-68
2021/06/05 01:25:02;;;;;;;48.30;43.70;;;20.40;99.90;;;;;;4969258;28;20457;-68
2021/06/05 01:27:34;;;;;;;34.70;31.33;;;20.30;99.90;;;;;;4974084;28;20924;-68
2021/06/05 01:30:10;;;;;;;33.93;30.93;;;20.30;99.90;;;;;;4973838;28;20461;-68
2021/06/05 01:32:38;;;;;;;37.60;34.20;;;20.30;99.90;;;;;;4974181;28;20532;-68
2021/06/05 01:35:07;;;;;;;30.43;27.80;;;20.30;99.90;;;;;;4974678;28;20553;-70
2021/06/05 01:37:37;;;;;;;27.27;24.90;;;20.20;99.90;;;;;;4966324;28;20831;-68
2021/06/05 01:40:06;;;;;;;26.80;24.50;;;20.30;99.90;;;;;;4973630;28;20799;-68
2021/06/05 01:42:36;;;;;;;31.20;28.23;;;20.30;99.90;;;;;;4973964;28;20432;-68
2021/06/05 01:45:11;;;;;;;29.83;27.20;;;20.30;99.90;;;;;;4969370;28;20470;-69
2021/06/05 01:47:38;;;;;;;37.23;33.97;;;20.30;99.90;;;;;;4974019;28;20469;-69
2021/06/05 01:50:08;;;;;;;26.90;24.50;;;20.20;99.90;;;;;;4964253;28;20446;-69
2021/06/05 01:52:39;;;;;;;25.27;22.83;;;20.20;99.90;;;;;;4968135;28;20488;-69
2021/06/05 01:55:11;;;;;;;26.27;23.90;;;20.20;99.90;;;;;;4970989;28;20862;-69
2021/06/05 01:57:43;;;;;;;23.93;21.83;;;20.20;99.90;;;;;;4973708;28;20964;-69
2021/06/05 02:00:15;;;;;;;25.80;23.60;;;20.20;99.90;;;;;;4972523;28;20442;-69
2021/06/05 02:02:43;;;;;;;29.47;26.67;;;20.20;99.90;;;;;;4974262;28;20517;-69
2021/06/05 02:05:10;;;;;;;30.93;28.27;;;20.30;99.90;;;;;;4973686;28;20916;-69
2021/06/05 02:07:37;;;;;;;32.87;29.87;;;20.20;99.90;;;;;;4973429;28;20801;-69
2021/06/05 02:10:09;;;;;;;33.20;29.63;;;20.20;99.90;;;;;;4972451;28;20501;-69
2021/06/05 02:12:37;;;;;;;29.03;26.53;;;20.20;99.90;;;;;;4980283;28;20877;-69
2021/06/05 02:15:11;;;;;;;34.67;31.17;;;20.20;99.90;;;;;;4971310;28;20882;-69
2021/06/05 02:17:41;;;;;;;32.37;29.30;;;20.20;99.90;;;;;;4976315;28;20484;-68
2021/06/05 02:20:13;;;;;;;29.83;27.10;;;20.10;99.90;;;;;;4973600;28;20449;-69
2021/06/05 02:22:42;;;;;;;32.53;29.40;;;20.10;99.90;;;;;;4973052;28;20465;-69
2021/06/05 02:25:14;;;;;;;35.40;32.20;;;20.10;99.90;;;;;;4974170;28;20448;-68
2021/06/05 02:27:42;;;;;;;31.77;28.87;;;20.10;99.90;;;;;;4973502;28;20481;-69
2021/06/05 02:30:18;;;;;;;32.63;29.73;;;20.10;99.90;;;;;;4973336;28;20449;-69
2021/06/05 02:32:45;;;;;;;33.77;30.47;;;20.10;99.90;;;;;;4971410;28;20786;-68
2021/06/05 02:35:19;;;;;;;33.93;30.30;;;20.10;99.90;;;;;;4972515;28;20443;-68
2021/06/05 02:37:46;;;;;;;35.03;32.03;;;20.10;99.90;;;;;;4970746;28;20878;-69
2021/06/05 02:40:16;;;;;;;32.40;29.57;;;20.00;99.90;;;;;;4971771;28;20520;-69
2021/06/05 02:42:43;;;;;;;36.57;33.07;;;20.00;99.90;;;;;;4972827;28;20437;-69
2021/06/05 02:45:19;;;;;;;37.70;34.50;;;20.00;99.90;;;;;;4973442;28;20445;-70
2021/06/05 02:47:53;;;;;;;36.97;33.57;;;19.90;99.90;;;;;;4966894;28;20797;-69
2021/06/05 02:50:21;;;;;;;32.90;30.00;;;19.80;99.90;;;;;;4972915;28;20472;-69
2021/06/05 02:52:49;;;;;;;31.67;28.77;;;19.80;99.90;;;;;;4969291;28;20492;-69
2021/06/05 02:55:19;;;;;;;32.67;29.90;;;19.70;99.90;;;;;;4967335;28;20474;-69
2021/06/05 02:57:47;;;;;;;33.40;30.30;;;19.80;99.90;;;;;;4972565;28;20474;-68
2021/06/05 03:00:18;;;;;;;39.83;36.30;;;19.80;99.90;;;;;;4972564;28;20445;-69
2021/06/05 03:02:49;;;;;;;34.37;31.10;;;19.80;99.90;;;;;;4973034;28;20453;-69
2021/06/05 03:05:15;;;;;;;33.33;30.43;;;19.70;99.90;;;;;;4971109;28;20557;-68
2021/06/05 03:07:43;;;;;;;30.30;27.70;;;19.80;99.90;;;;;;4967266;28;20502;-68
2021/06/05 03:10:11;;;;;;;33.10;30.00;;;19.80;99.90;;;;;;4970941;28;20771;-68
2021/06/05 03:12:38;;;;;;;31.30;28.50;;;19.80;99.90;;;;;;4971603;28;20573;-68
2021/06/05 03:15:08;;;;;;;29.60;26.90;;;19.80;99.90;;;;;;4973104;28;20441;-68
2021/06/05 03:17:37;;;;;;;31.17;28.37;;;19.80;99.90;;;;;;4971703;28;20806;-69
2021/06/05 03:20:07;;;;;;;31.50;28.70;;;19.90;99.90;;;;;;4972459;28;20514;-68
2021/06/05 03:22:34;;;;;;;28.60;26.20;;;19.80;99.90;;;;;;4971883;28;20540;-69
2021/06/05 03:25:00;;;;;;;35.00;31.90;;;19.80;99.90;;;;;;4973244;28;20974;-69
2021/06/05 03:27:27;;;;;;;31.10;28.53;;;19.80;99.90;;;;;;4972171;28;20796;-69
2021/06/05 03:29:55;;;;;;;30.90;28.10;;;19.70;99.90;;;;;;4972542;28;20804;-69
2021/06/05 03:32:22;;;;;;;36.20;32.90;;;19.70;99.90;;;;;;4972795;28;20490;-69
2021/06/05 03:34:50;;;;;;;29.10;26.40;;;19.70;99.90;;;;;;4973208;28;20446;-69
2021/06/05 03:37:17;;;;;;;30.43;27.67;;;19.80;99.90;;;;;;4971942;28;20799;-69
2021/06/05 03:39:43;;;;;;;31.90;29.07;;;19.90;99.90;;;;;;4972242;28;20811;-69
2021/06/05 03:42:11;;;;;;;28.43;26.00;;;19.90;99.90;;;;;;4973063;28;20808;-69
2021/06/05 03:44:37;;;;;;;30.47;27.77;;;20.00;99.90;;;;;;4972881;28;20450;-69
2021/06/05 03:47:05;;;;;;;30.70;28.10;;;20.00;99.90;;;;;;4971490;28;20526;-68
2021/06/05 03:49:31;;;;;;;28.83;26.30;;;20.00;99.90;;;;;;4967470;28;20453;-68
2021/06/05 03:51:59;;;;;;;31.43;28.67;;;20.00;99.90;;;;;;4972188;28;20469;-68
2021/06/05 03:54:26;;;;;;;29.37;26.87;;;20.00;99.90;;;;;;4973284;28;20445;-70
2021/06/05 03:56:52;;;;;;;29.47;26.87;;;19.90;99.90;;;;;;4972202;28;20964;-70
2021/06/05 03:59:19;;;;;;;27.67;25.07;;;19.90;99.90;;;;;;4964795;28;20450;-71
2021/06/05 04:01:48;;;;;;;29.90;27.23;;;19.80;99.90;;;;;;4971708;28;20437;-70
2021/06/05 04:04:15;;;;;;;28.33;25.87;;;19.80;99.90;;;;;;4972964;28;20452;-69
2021/06/05 04:06:42;;;;;;;28.83;26.33;;;19.70;99.90;;;;;;4970201;28;20486;-70
2021/06/05 04:09:10;;;;;;;27.80;25.50;;;19.70;99.90;;;;;;4971987;28;20935;-70
2021/06/05 04:11:36;;;;;;;28.87;26.57;;;19.70;99.90;;;;;;4971919;28;20468;-70
2021/06/05 04:14:05;;;;;;;27.23;25.13;;;19.70;99.90;;;;;;4968015;28;20952;-69
2021/06/05 04:16:32;;;;;;;28.60;26.10;;;19.70;99.90;;;;;;4972440;28;20480;-69
2021/06/05 04:18:58;;;;;;;27.73;25.43;;;19.80;99.90;;;;;;4971789;28;20449;-70
2021/06/05 04:21:27;;;;;;;25.63;23.40;;;19.80;99.90;;;;;;4973659;28;20457;-71
2021/06/05 04:23:53;;;;;;;27.87;25.40;;;19.90;99.90;;;;;;4975488;28;21004;-70
2021/06/05 04:26:22;;;;;;;26.33;24.13;;;19.90;99.90;;;;;;4971656;28;20470;-68
2021/06/05 04:28:49;;;;;;;26.83;24.43;;;19.90;99.90;;;;;;4972235;28;20505;-67
2021/06/05 04:31:17;;;;;;;30.83;28.00;;;19.90;99.90;;;;;;4971980;28;20448;-68
2021/06/05 04:33:44;;;;;;;26.50;24.20;;;19.90;99.90;;;;;;4971880;28;20845;-69
2021/06/05 04:36:14;;;;;;;26.17;24.00;;;20.00;99.90;;;;;;4971799;28;20465;-68
2021/06/05 04:38:42;;;;;;;24.60;22.57;;;20.10;99.90;;;;;;4978242;28;20457;-68
2021/06/05 04:41:11;;;;;;;23.60;21.60;;;20.20;99.90;;;;;;4975396;28;20450;-68
2021/06/05 04:43:39;;;;;;;27.23;24.93;;;20.40;99.90;;;;;;4975864;28;20831;-68
2021/06/05 04:46:07;;;;;;;22.07;20.07;;;20.50;99.90;;;;;;4974915;28;20505;-68
2021/06/05 04:48:34;;;;;;;24.17;22.17;;;20.60;99.90;;;;;;4975691;28;20448;-69
2021/06/05 04:51:01;;;;;;;24.03;22.03;;;20.60;99.90;;;;;;4975295;28;20951;-68
2021/06/05 04:53:28;;;;;;;23.30;21.30;;;20.80;99.90;;;;;;4975057;28;20855;-68
2021/06/05 04:55:55;;;;;;;24.70;22.70;;;20.90;99.90;;;;;;4974839;28;20470;-68
2021/06/05 04:58:23;;;;;;;24.27;21.87;;;20.90;99.90;;;;;;4974685;28;20456;-68
2021/06/05 05:00:53;;;;;;;26.63;24.30;;;21.00;99.90;;;;;;4975666;28;20444;-68
2021/06/05 05:03:22;;;;;;;25.23;23.17;;;20.90;99.90;;;;;;4975006;28;20879;-68
2021/06/05 05:05:50;;;;;;;21.93;19.97;;;20.90;99.90;;;;;;4974812;28;20560;-69
2021/06/05 05:08:18;;;;;;;24.33;22.43;;;21.00;99.90;;;;;;4974507;28;20812;-68
2021/06/05 05:10:48;;;;;;;24.80;22.60;;;21.00;99.90;;;;;;4974895;28;20551;-69
2021/06/05 05:13:18;;;;;;;24.57;22.47;;;20.90;99.90;;;;;;4974796;28;20469;-69
2021/06/05 05:15:47;;;;;;;27.17;24.97;;;20.80;99.90;;;;;;4974115;28;20441;-68
2021/06/05 05:18:15;;;;;;;24.07;21.97;;;20.60;99.90;;;;;;4974964;28;20485;-68
2021/06/05 05:20:44;;;;;;;25.03;22.70;;;20.70;99.90;;;;;;4975297;28;20956;-69
2021/06/05 05:23:11;;;;;;;23.57;21.47;;;20.70;99.90;;;;;;4975245;28;20437;-68
2021/06/05 05:25:41;;;;;;;22.23;20.50;;;20.80;99.90;;;;;;4974565;28;20446;-69
2021/06/05 05:28:09;;;;;;;22.13;20.23;;;20.90;99.90;;;;;;4973841;28;20813;-68
2021/06/05 05:30:40;;;;;;;23.27;21.00;;;20.90;99.90;;;;;;4973854;28;20448;-68
2021/06/05 05:33:07;;;;;;;24.33;22.20;;;20.90;99.90;;;;;;4972992;28;20812;-67
2021/06/05 05:35:35;;;;;;;23.00;20.80;;;20.90;99.90;;;;;;4969871;28;20821;-66
2021/06/05 05:38:02;;;;;;;27.30;24.67;;;20.80;99.90;;;;;;4972149;28;20476;-66
2021/06/05 05:40:30;;;;;;;23.93;21.73;;;20.60;99.90;;;;;;4960629;28;20808;-66
2021/06/05 05:42:56;;;;;;;32.40;29.40;;;20.40;99.90;;;;;;4962872;28;20434;-67
2021/06/05 05:45:24;;;;;;;27.43;24.83;;;20.20;99.90;;;;;;4961441;28;20436;-67
2021/06/05 05:47:51;;;;;;;31.97;29.07;;;20.10;99.90;;;;;;4958682;28;20521;-68
2021/06/05 05:50:20;;;;;;;25.37;23.17;;;20.00;99.90;;;;;;4957559;28;20442;-68
2021/06/05 05:52:48;;;;;;;26.60;24.27;;;19.90;99.90;;;;;;4960622;28;20879;-67
2021/06/05 05:55:17;;;;;;;28.47;25.83;;;20.00;99.90;;;;;;4960970;28;20439;-69
2021/06/05 05:57:46;;;;;;;28.87;25.80;;;19.90;99.90;;;;;;4957878;28;20470;-68
2021/06/05 06:00:16;;;;;;;30.43;27.87;;;19.90;99.90;;;;;;4962377;28;20945;-69
2021/06/05 06:02:46;;;;;;;26.17;23.90;;;19.90;99.90;;;;;;4961396;28;20458;-68
2021/06/05 06:05:13;;;;;;;24.97;22.83;;;20.00;99.90;;;;;;4957837;28;20972;-68
2021/06/05 06:07:40;;;;;;;25.20;23.00;;;20.00;99.90;;;;;;4958360;28;20470;-69
2021/06/05 06:10:13;;;;;;;30.90;28.10;;;20.00;99.90;;;;;;4960049;28;20490;-69
2021/06/05 06:12:40;;;;;;;31.03;28.40;;;20.10;99.90;;;;;;4962254;28;20483;-70
2021/06/05 06:15:14;;;;;;;29.03;26.53;;;20.10;99.90;;;;;;4962536;28;20446;-70
2021/06/05 06:17:41;;;;;;;29.27;26.60;;;20.30;99.90;;;;;;4967756;28;20505;-69
2021/06/05 06:20:13;;;;;;;24.27;22.17;;;20.40;99.90;;;;;;4973066;28;20442;-70
2021/06/05 06:22:39;;;;;;;24.00;22.00;;;20.50;99.90;;;;;;4973634;28;20488;-69
2021/06/05 06:25:09;;;;;;;27.90;25.40;;;20.70;99.90;;;;;;4979083;28;20448;-70
2021/06/05 06:27:36;;;;;;;21.90;20.20;;;20.80;99.90;;;;;;4972493;28;20474;-70
2021/06/05 06:30:05;;;;;;;26.00;23.87;;;20.90;99.90;;;;;;4972719;28;20795;-70
2021/06/05 06:32:32;;;;;;;25.50;23.40;;;21.00;99.90;;;;;;4973303;28;20489;-70
2021/06/05 06:34:58;;;;;;;21.57;19.67;;;21.10;99.90;;;;;;4972937;28;20455;-70
2021/06/05 06:37:25;;;;;;;26.90;24.67;;;21.00;99.90;;;;;;4972879;28;21057;-70
2021/06/05 06:39:52;;;;;;;21.93;20.13;;;21.10;99.90;;;;;;4971088;28;20449;-70
2021/06/05 06:42:22;;;;;;;22.23;20.20;;;21.00;99.90;;;;;;4972339;28;20452;-70
2021/06/05 06:44:48;;;;;;;20.43;18.80;;;21.00;99.90;;;;;;4972414;28;20445;-71
2021/06/05 06:47:15;;;;;;;27.23;24.93;;;21.00;99.90;;;;;;4971975;28;20579;-70
2021/06/05 06:49:42;;;;;;;22.23;20.23;;;21.00;99.90;;;;;;4972282;28;20457;-70
2021/06/05 06:52:08;;;;;;;22.13;20.13;;;20.90;99.90;;;;;;4971044;28;20847;-70
2021/06/05 06:54:35;;;;;;;23.83;21.47;;;20.90;99.90;;;;;;4968045;28;20449;-70
2021/06/05 06:57:02;;;;;;;21.50;19.60;;;21.00;99.90;;;;;;4969411;28;20474;-70
2021/06/05 06:59:31;;;;;;;20.93;19.17;;;21.10;99.90;;;;;;4972143;28;20448;-72
2021/06/05 07:01:59;;;;;;;20.53;18.93;;;21.20;99.90;;;;;;4970465;28;20463;-72
2021/06/05 07:04:26;;;;;;;20.37;18.47;;;21.20;99.90;;;;;;4973053;28;20448;-72
2021/06/05 07:06:52;;;;;;;24.17;22.13;;;21.30;99.90;;;;;;4971697;28;20483;-73
2021/06/05 07:09:19;;;;;;;26.47;24.27;;;21.40;99.90;;;;;;4972266;28;20450;-73
2021/06/05 07:11:48;;;;;;;25.77;23.57;;;21.30;99.90;;;;;;4971254;28;20463;-73
2021/06/05 07:14:15;;;;;;;27.00;24.53;;;21.20;99.90;;;;;;4975765;28;20755;-72
2021/06/05 07:16:43;;;;;;;29.43;26.63;;;21.30;99.90;;;;;;4963016;28;20481;-76
2021/06/05 07:19:09;;;;;;;31.40;28.50;;;21.20;99.90;;;;;;4972785;28;20499;-74
2021/06/05 07:21:37;;;;;;;27.50;25.30;;;21.10;99.90;;;;;;4968413;28;20447;-74
2021/06/05 07:24:04;;;;;;;29.47;26.80;;;21.00;99.90;;;;;;4973413;28;20476;-73
2021/06/05 07:26:31;;;;;;;29.37;26.67;;;21.00;99.90;;;;;;4973077;28;20515;-73
2021/06/05 07:29:01;;;;;;;29.73;26.93;;;20.90;99.90;;;;;;4972132;28;20866;-74
2021/06/05 07:31:30;;;;;;;30.57;27.97;;;20.70;99.90;;;;;;4968722;28;20445;-73
2021/06/05 07:34:00;;;;;;;28.07;25.20;;;20.60;99.90;;;;;;4972562;28;20862;-72
2021/06/05 07:36:31;;;;;;;29.23;26.53;;;20.60;99.90;;;;;;4972522;28;20473;-73
2021/06/05 07:38:58;;;;;;;26.73;24.30;;;20.60;99.90;;;;;;4972267;28;20481;-71
2021/06/05 07:41:25;;;;;;;26.23;23.90;;;20.60;99.90;;;;;;4964285;28;20453;-69
2021/06/05 07:43:53;;;;;;;27.53;24.90;;;20.60;99.90;;;;;;4972155;28;20454;-72
2021/06/05 07:46:20;;;;;;;28.87;26.10;;;20.60;99.90;;;;;;4963691;28;20467;-71
2021/06/05 07:48:46;;;;;;;25.67;23.47;;;20.60;99.90;;;;;;4967113;28;20501;-71
2021/06/05 07:51:14;;;;;;;27.97;25.40;;;20.60;99.90;;;;;;4972727;28;20837;-72
2021/06/05 07:53:43;;;;;;;28.13;25.60;;;20.50;99.90;;;;;;4971202;28;20826;-69
2021/06/05 07:56:12;;;;;;;33.17;30.30;;;20.50;99.90;;;;;;4972431;28;20548;-70
2021/06/05 07:58:38;;;;;;;32.10;29.20;;;20.40;99.90;;;;;;4970654;28;20527;-71
2021/06/05 08:01:05;;;;;;;29.20;26.63;;;20.30;99.90;;;;;;4971921;28;20449;-70
2021/06/05 08:03:33;;;;;;;29.27;26.50;;;20.40;99.90;;;;;;4966636;28;20461;-70
2021/06/05 08:06:00;;;;;;;30.00;27.50;;;20.40;99.90;;;;;;4971564;28;20500;-71
2021/06/05 08:08:28;;;;;;;28.53;26.10;;;20.40;99.90;;;;;;4967661;28;20445;-70
2021/06/05 08:10:55;;;;;;;33.17;30.33;;;20.40;99.90;;;;;;4970965;28;20485;-70
2021/06/05 08:13:22;;;;;;;31.90;28.90;;;20.30;99.90;;;;;;4974928;28;20481;-69
2021/06/05 08:15:51;;;;;;;32.97;30.23;;;20.30;99.90;;;;;;4975667;28;20533;-69
2021/06/05 08:18:20;;;;;;;33.77;30.77;;;20.20;99.90;;;;;;4975404;28;21832;-70
2021/06/05 08:20:49;;;;;;;31.90;29.17;;;20.20;99.90;;;;;;4976721;28;20585;-70
2021/06/05 08:23:20;;;;;;;29.77;27.17;;;20.20;99.90;;;;;;4965160;28;20448;-72
2021/06/05 08:25:49;;;;;;;33.33;30.43;;;20.20;99.90;;;;;;4975302;28;20445;-71
2021/06/05 08:28:17;;;;;;;36.43;33.20;;;20.20;99.90;;;;;;4974866;28;20511;-70
2021/06/05 08:30:47;;;;;;;36.17;33.00;;;20.30;99.90;;;;;;4973789;28;20446;-71
2021/06/05 08:33:15;;;;;;;33.97;30.97;;;20.30;99.90;;;;;;4975295;28;20486;-71
2021/06/05 08:35:43;;;;;;;32.60;29.60;;;20.30;99.90;;;;;;4973840;28;20850;-69
2021/06/05 08:38:13;;;;;;;39.60;36.13;;;20.40;99.90;;;;;;4977417;28;20578;-70
2021/06/05 08:40:45;;;;;;;38.30;35.00;;;20.50;99.90;;;;;;4975942;28;20446;-71
2021/06/05 08:43:18;;;;;;;34.50;31.30;;;20.40;99.90;;;;;;4975230;28;20455;-70
2021/06/05 08:45:44;;;;;;;33.50;30.60;;;20.50;99.90;;;;;;4970953;28;20440;-70
2021/06/05 08:48:16;;;;;;;32.27;29.60;;;20.50;99.90;;;;;;4969035;28;20521;-70
2021/06/05 08:50:43;;;;;;;39.60;35.87;;;20.40;99.90;;;;;;4973539;28;20443;-70
2021/06/05 08:53:15;;;;;;;37.50;34.03;;;20.50;99.90;;;;;;4966109;28;20477;-70
2021/06/05 08:55:46;;;;;;;31.97;29.20;;;20.50;99.90;;;;;;4974144;28;20516;-74
2021/06/05 08:58:29;;;;;;;32.73;30.03;;;20.60;99.90;;;;;;4971560;28;20589;-72
2021/06/05 09:00:58;;;;;;;34.97;32.03;;;20.60;99.90;;;;;;4956962;28;20479;-71
2021/06/05 09:03:29;;;;;;;32.87;30.03;;;20.60;99.90;;;;;;4972308;28;20454;-73
2021/06/05 09:06:00;;;;;;;30.43;27.90;;;20.60;99.90;;;;;;4974927;28;20953;-73
2021/06/05 09:08:28;;;;;;;38.53;35.13;;;20.60;99.90;;;;;;4974641;28;20451;-72
2021/06/05 09:10:57;;;;;;;36.93;33.70;;;20.50;99.90;;;;;;4970007;28;20448;-73
2021/06/05 09:13:25;;;;;;;33.70;30.90;;;20.50;99.90;;;;;;4974954;28;20536;-73
2021/06/05 09:16:23;;;;;;;32.50;29.60;;;20.40;99.90;;;;;;4974946;28;20484;-72
2021/06/05 09:18:51;;;;;;;34.83;31.90;;;20.50;99.90;;;;;;4970077;28;20451;-73
2021/06/05 09:21:27;;;;;;;30.23;27.17;;;20.50;99.90;;;;;;4987901;28;20445;-72
2021/06/05 09:24:09;;;;;;;34.10;31.07;;;20.60;99.90;;;;;;4974642;28;20440;-73
2021/06/05 09:26:36;;;;;;;39.47;35.80;;;20.60;99.90;;;;;;4950965;28;20531;-73
2021/06/05 09:29:15;;;;;;;40.30;36.57;;;20.70;99.90;;;;;;4971313;28;20454;-73
2021/06/05 09:31:59;;;;;;;34.87;31.87;;;20.60;99.90;;;;;;4964265;28;20493;-80
2021/06/05 09:34:32;;;;;;;42.60;38.37;;;20.60;99.90;;;;;;4965290;28;20446;-76
2021/06/05 09:37:06;;;;;;;40.67;36.97;;;20.60;99.90;;;;;;4963125;28;20550;-75
2021/06/05 09:39:40;;;;;;;40.40;36.90;;;20.60;99.90;;;;;;4973247;28;20461;-75
2021/06/05 09:42:12;;;;;;;40.03;36.17;;;20.50;99.90;;;;;;4968774;28;20450;-73
2021/06/05 09:44:44;;;;;;;38.33;35.03;;;20.60;99.90;;;;;;4975432;28;20480;-74
2021/06/05 09:47:24;;;;;;;34.83;31.77;;;20.60;99.90;;;;;;4974966;28;20473;-74
2021/06/05 09:49:57;;;;;;;38.90;35.50;;;20.70;99.90;;;;;;4968045;28;20578;-74
2021/06/05 09:52:34;;;;;;;37.50;34.30;;;20.70;99.90;;;;;;4970252;28;20532;-74
2021/06/05 09:55:26;;;;;;;43.40;39.43;;;20.90;99.90;;;;;;4963616;28;20441;-77
2021/06/05 09:57:55;;;;;;;37.30;33.67;;;20.90;99.90;;;;;;4970584;28;20568;-74
2021/06/05 10:00:28;;;;;;;35.80;32.80;;;20.90;99.90;;;;;;4973199;28;20746;-71
2021/06/05 10:03:28;;;;;;;38.80;35.43;;;21.00;99.90;;;;;;4973282;28;20447;-73
2021/06/05 10:05:56;;;;;;;37.63;34.37;;;21.20;99.90;;;;;;4954609;28;20456;-74
2021/06/05 10:08:32;;;;;;;37.20;33.93;;;21.30;99.90;;;;;;4971463;28;20456;-72
2021/06/05 10:11:05;;;;;;;36.90;33.70;;;21.50;99.90;;;;;;4974568;28;20452;-74
2021/06/05 10:13:36;;;;;;;34.33;31.33;;;21.80;99.90;;;;;;4974992;28;20513;-76
2021/06/05 10:16:09;;;;;;;33.27;30.17;;;22.30;99.90;;;;;;4973884;28;20457;-74
2021/06/05 10:18:41;;;;;;;32.70;29.80;;;23.20;99.90;;;;;;4969582;28;20460;-76
2021/06/05 10:21:14;;;;;;;32.17;29.57;;;24.20;99.90;;;;;;4972133;28;20442;-72
2021/06/05 10:23:44;;;;;;;30.70;27.87;;;24.80;99.90;;;;;;4968416;28;20453;-75
2021/06/05 10:26:22;;;;;;;32.77;29.77;;;25.10;99.90;;;;;;4974695;28;20477;-77
2021/06/05 10:28:55;;;;;;;27.40;25.10;;;25.30;99.90;;;;;;4969051;28;20469;-75
2021/06/05 10:31:25;;;;;;;27.27;24.87;;;25.50;99.90;;;;;;4974312;28;20468;-75
2021/06/05 10:33:56;;;;;;;24.00;22.10;;;25.50;99.90;;;;;;4973849;28;21052;-78
2021/06/05 10:36:26;;;;;;;26.07;23.90;;;25.10;99.90;;;;;;4972586;28;20468;-78
2021/06/05 10:38:57;;;;;;;29.57;27.10;;;25.00;99.90;;;;;;4975623;28;20537;-81
2021/06/05 10:41:27;;;;;;;27.70;25.33;;;24.80;99.90;;;;;;4977245;28;20445;-83
2021/06/05 10:43:54;;;;;;;34.00;30.90;;;24.60;99.90;;;;;;4977706;28;20445;-80
2021/06/05 10:46:31;;;;;;;25.57;23.37;;;24.50;99.90;;;;;;4973014;28;20597;-76
2021/06/05 10:49:08;;;;;;;33.47;30.20;;;24.30;99.90;;;;;;4974592;28;20503;-78
2021/06/05 10:51:36;;;;;;;29.53;26.97;;;24.10;99.90;;;;;;4978733;28;20453;-77
2021/06/05 10:54:07;;;;;;;32.27;29.47;;;23.90;99.90;;;;;;4976617;28;20473;-74
2021/06/05 10:56:40;;;;;;;28.37;25.83;;;23.60;99.90;;;;;;4966391;28;20480;-83
2021/06/05 10:59:34;;;;;;;25.43;23.13;;;23.40;99.90;;;;;;4978420;28;20485;-81
2021/06/05 11:02:02;;;;;;;33.50;30.77;;;23.20;99.90;;;;;;4977539;28;20452;-79
2021/06/05 11:04:45;;;;;;;32.90;29.90;;;22.90;99.90;;;;;;4975169;28;20497;-78
2021/06/05 11:07:32;;;;;;;38.43;34.53;;;22.50;99.90;;;;;;4973322;28;20739;-76
2021/06/05 11:10:03;;;;;;;32.40;29.63;;;22.10;99.90;;;;;;4973250;28;20441;-77
2021/06/05 11:12:49;;;;;;;35.03;31.93;;;21.90;99.90;;;;;;4967364;28;20453;-75
2021/06/05 11:15:51;;;;;;;39.10;35.10;;;21.70;99.90;;;;;;4962508;28;20441;-75
2021/06/05 11:18:41;;;;;;;34.53;31.23;;;21.60;99.90;;;;;;4927079;29;20516;-75
2021/06/05 11:21:45;;;;;;;36.93;33.73;;;21.60;99.90;;;;;;4916478;29;20498;-74
2021/06/05 11:24:22;;;;;;;35.93;32.80;;;21.60;99.90;;;;;;4966455;28;20498;-74
2021/06/05 11:26:51;;;;;;;38.50;35.03;;;21.70;99.90;;;;;;4956276;28;20476;-77
2021/06/05 11:29:50;;;;;;;36.97;33.67;;;21.80;99.90;;;;;;4972147;28;20901;-75
2021/06/05 11:33:00;;;;;;;35.97;32.87;;;22.00;99.90;;;;;;4972253;28;20517;-77
2021/06/05 11:35:40;;;;;;;33.57;30.67;;;22.20;99.90;;;;;;4968972;28;20433;-77
2021/06/05 11:38:09;;;;;;;29.67;27.07;;;22.60;99.90;;;;;;4971285;28;20462;-79
2021/06/05 11:40:55;;;;;;;35.63;32.63;;;22.80;99.90;;;;;;4974403;28;20452;-79
2021/06/05 11:43:43;;;;;;;36.23;33.03;;;22.90;99.90;;;;;;4972271;28;20438;-77
2021/06/05 11:46:14;;;;;;;23.10;21.30;;;22.90;99.90;;;;;;4971494;28;20548;-77
2021/06/05 11:48:50;;;;;;;27.07;24.77;;;22.90;99.90;;;;;;4976568;28;20449;-78
2021/06/05 11:51:31;;;;;;;28.93;26.47;;;22.70;99.90;;;;;;4977276;28;20884;-78
2021/06/05 11:54:01;;;;;;;28.80;26.20;;;22.60;99.90;;;;;;4961394;28;20473;-76
2021/06/05 11:56:31;;;;;;;31.10;28.40;;;22.40;99.90;;;;;;4977809;28;20561;-78
2021/06/05 11:59:11;;;;;;;31.93;29.30;;;22.20;99.90;;;;;;4976806;28;20479;-78
2021/06/05 12:01:38;;;;;;;28.40;26.00;;;22.10;99.90;;;;;;4954496;28;20453;-75
2021/06/05 12:04:10;;;;;;;30.00;27.00;;;22.00;99.90;;;;;;4977467;28;20437;-75
2021/06/05 12:06:43;;;;;;;27.77;25.17;;;22.00;99.90;;;;;;4977195;28;20507;-75
2021/06/05 12:09:16;;;;;;;33.00;30.20;;;22.20;99.90;;;;;;4971970;28;20540;-76
2021/06/05 12:11:47;;;;;;;31.73;29.13;;;22.30;99.90;;;;;;4979225;28;20447;-73
2021/06/05 12:14:19;;;;;;;28.13;25.63;;;22.40;99.90;;;;;;4976086;28;20484;-78
2021/06/05 12:16:52;;;;;;;34.10;31.00;;;22.50;99.90;;;;;;4977083;28;20480;-76
2021/06/05 12:19:24;;;;;;;29.30;26.13;;;22.70;99.90;;;;;;4975410;28;20445;-77
2021/06/05 12:21:54;;;;;;;36.27;32.87;;;22.90;99.90;;;;;;4960106;28;20460;-73
2021/06/05 12:24:24;;;;;;;37.37;34.07;;;23.00;99.90;;;;;;4976670;28;20475;-77
2021/06/05 12:26:55;;;;;;;34.87;32.00;;;23.00;99.90;;;;;;4974920;28;20795;-73
2021/06/05 12:29:25;;;;;;;38.47;35.20;;;22.90;99.90;;;;;;4977702;28;20781;-77
2021/06/05 12:31:54;;;;;;;33.03;30.33;;;23.00;99.90;;;;;;4976270;28;20441;-75
2021/06/05 12:34:34;;;;;;;36.03;32.97;;;23.10;99.90;;;;;;4978065;28;20850;-76
2021/06/05 12:37:05;;;;;;;37.93;34.53;;;23.00;99.90;;;;;;4983844;28;20828;-74
2021/06/05 12:39:44;;;;;;;29.30;26.40;;;22.90;99.90;;;;;;4972325;28;20507;-73
2021/06/05 12:42:18;;;;;;;31.60;28.90;;;22.70;99.90;;;;;;4971128;28;20456;-73
2021/06/05 12:44:46;;;;;;;34.33;31.43;;;22.80;99.90;;;;;;4976414;28;20449;-74